<?xml version="1.0" encoding="UTF-8" standalone="no" ?>
<gpx xmlns="http://www.topografix.com/GPX/1/1" xmlns:xsi="http://www.w3.org/2001/XMLSchema-instance" xsi:schemaLocation="http://www.topografix.com/GPX/1/1 http://www.topografix.com/GPX/1/1/gpx.xsd" version="1.1" creator="VisuGPX - https://www.visugpx.com">
  <metadata>
    <name>Petit yoguigne Annecéen</name>
    <desc><![CDATA[Pour se remettre du feu d'artifice et pour être en forme pour la fameuse rivière du Fier ! ]]></desc>
  </metadata>
  <trk>
    <name><![CDATA[2017-07-15 08:19]]></name>
    <desc><![CDATA[<p>Heure de départ: 07/15/2017 08:19</p><p>Heure d'arrivée: 07/15/2017 09:00</p><p>Distance: 6,9 km (00:41)</p><p>Temps déplacement: 00:41</p><p>Vitesse moyenne: 9,96 km/h</p><p>Vitesse moyenne mouv.: 9,99 km/h</p><p>Vitesse Max.: 15,99km/h</p><p>Altitude minimale: 464 m</p><p>Altitude maximale: 543 m</p><p>Vitesse de montée: 639,9 m/h</p><p>Vitesse de descente: -606,4 m/h</p><p>Gain d'altitude: 203 m</p><p>Perte d'altitude: -180 m</p><p>Temps de montée: 00:19</p><p>Temps de descente: 00:17</p><hr align="center" width="480" style="height: 2px; width: 517px"/>]]></desc>
    <trkseg>
      <trkpt lat="45.92501" lon="6.14836">
        <ele>493.88</ele>
        <time>2017-07-15T06:19:12Z</time>
      </trkpt>
      <trkpt lat="45.92524" lon="6.1483">
        <ele>517.88</ele>
        <time>2017-07-15T06:19:13Z</time>
      </trkpt>
      <trkpt lat="45.9255" lon="6.14829">
        <ele>527.48</ele>
        <time>2017-07-15T06:19:14Z</time>
      </trkpt>
      <trkpt lat="45.92558" lon="6.14852">
        <ele>521.88</ele>
        <time>2017-07-15T06:19:34Z</time>
      </trkpt>
      <trkpt lat="45.92568" lon="6.14876">
        <ele>522.67</ele>
        <time>2017-07-15T06:19:51Z</time>
      </trkpt>
      <trkpt lat="45.92582" lon="6.14894">
        <ele>518.88</ele>
        <time>2017-07-15T06:20:09Z</time>
      </trkpt>
      <trkpt lat="45.9259" lon="6.14919">
        <ele>518.88</ele>
        <time>2017-07-15T06:20:26Z</time>
      </trkpt>
      <trkpt lat="45.92602" lon="6.14938">
        <ele>521.89</ele>
        <time>2017-07-15T06:20:43Z</time>
      </trkpt>
      <trkpt lat="45.92614" lon="6.14958">
        <ele>517.89</ele>
        <time>2017-07-15T06:20:53Z</time>
      </trkpt>
      <trkpt lat="45.92624" lon="6.14981">
        <ele>518.52</ele>
        <time>2017-07-15T06:21:01Z</time>
      </trkpt>
      <trkpt lat="45.92623" lon="6.15007">
        <ele>521.84</ele>
        <time>2017-07-15T06:21:07Z</time>
      </trkpt>
      <trkpt lat="45.92625" lon="6.15034">
        <ele>523.84</ele>
        <time>2017-07-15T06:21:17Z</time>
      </trkpt>
      <trkpt lat="45.92621" lon="6.1506">
        <ele>526.48</ele>
        <time>2017-07-15T06:21:24Z</time>
      </trkpt>
      <trkpt lat="45.92621" lon="6.15088">
        <ele>527.92</ele>
        <time>2017-07-15T06:21:33Z</time>
      </trkpt>
      <trkpt lat="45.92624" lon="6.15114">
        <ele>527.09</ele>
        <time>2017-07-15T06:21:41Z</time>
      </trkpt>
      <trkpt lat="45.9263" lon="6.1514">
        <ele>526.87</ele>
        <time>2017-07-15T06:21:50Z</time>
      </trkpt>
      <trkpt lat="45.9264" lon="6.15165">
        <ele>527.16</ele>
        <time>2017-07-15T06:21:58Z</time>
      </trkpt>
      <trkpt lat="45.92654" lon="6.15184">
        <ele>521.89</ele>
        <time>2017-07-15T06:22:06Z</time>
      </trkpt>
      <trkpt lat="45.92664" lon="6.15207">
        <ele>521.88</ele>
        <time>2017-07-15T06:22:14Z</time>
      </trkpt>
      <trkpt lat="45.92676" lon="6.15227">
        <ele>521.89</ele>
        <time>2017-07-15T06:22:21Z</time>
      </trkpt>
      <trkpt lat="45.92684" lon="6.15251">
        <ele>522.68</ele>
        <time>2017-07-15T06:22:30Z</time>
      </trkpt>
      <trkpt lat="45.92674" lon="6.15276">
        <ele>520.09</ele>
        <time>2017-07-15T06:22:41Z</time>
      </trkpt>
      <trkpt lat="45.92663" lon="6.15301">
        <ele>524.71</ele>
        <time>2017-07-15T06:22:51Z</time>
      </trkpt>
      <trkpt lat="45.92652" lon="6.15323">
        <ele>526.88</ele>
        <time>2017-07-15T06:22:59Z</time>
      </trkpt>
      <trkpt lat="45.92638" lon="6.15341">
        <ele>528.88</ele>
        <time>2017-07-15T06:23:07Z</time>
      </trkpt>
      <trkpt lat="45.92621" lon="6.15357">
        <ele>526.92</ele>
        <time>2017-07-15T06:23:15Z</time>
      </trkpt>
      <trkpt lat="45.92606" lon="6.15372">
        <ele>526.06</ele>
        <time>2017-07-15T06:23:23Z</time>
      </trkpt>
      <trkpt lat="45.92611" lon="6.15397">
        <ele>529.63</ele>
        <time>2017-07-15T06:23:31Z</time>
      </trkpt>
      <trkpt lat="45.92624" lon="6.15421">
        <ele>529.88</ele>
        <time>2017-07-15T06:23:39Z</time>
      </trkpt>
      <trkpt lat="45.92635" lon="6.15441">
        <ele>531.09</ele>
        <time>2017-07-15T06:23:46Z</time>
      </trkpt>
      <trkpt lat="45.92644" lon="6.15465">
        <ele>530.89</ele>
        <time>2017-07-15T06:23:54Z</time>
      </trkpt>
      <trkpt lat="45.92653" lon="6.15491">
        <ele>533</ele>
        <time>2017-07-15T06:24:02Z</time>
      </trkpt>
      <trkpt lat="45.9266" lon="6.15518">
        <ele>531.93</ele>
        <time>2017-07-15T06:24:11Z</time>
      </trkpt>
      <trkpt lat="45.92667" lon="6.15544">
        <ele>529.88</ele>
        <time>2017-07-15T06:24:20Z</time>
      </trkpt>
      <trkpt lat="45.92672" lon="6.1557">
        <ele>530.27</ele>
        <time>2017-07-15T06:24:28Z</time>
      </trkpt>
      <trkpt lat="45.92684" lon="6.15594">
        <ele>531.84</ele>
        <time>2017-07-15T06:24:36Z</time>
      </trkpt>
      <trkpt lat="45.92694" lon="6.15618">
        <ele>532.88</ele>
        <time>2017-07-15T06:24:45Z</time>
      </trkpt>
      <trkpt lat="45.92708" lon="6.15642">
        <ele>536.44</ele>
        <time>2017-07-15T06:24:54Z</time>
      </trkpt>
      <trkpt lat="45.92714" lon="6.15667">
        <ele>536.64</ele>
        <time>2017-07-15T06:25:02Z</time>
      </trkpt>
      <trkpt lat="45.92704" lon="6.15692">
        <ele>536.93</ele>
        <time>2017-07-15T06:25:10Z</time>
      </trkpt>
      <trkpt lat="45.92692" lon="6.15714">
        <ele>533.86</ele>
        <time>2017-07-15T06:25:17Z</time>
      </trkpt>
      <trkpt lat="45.92702" lon="6.15738">
        <ele>534.69</ele>
        <time>2017-07-15T06:25:25Z</time>
      </trkpt>
      <trkpt lat="45.92716" lon="6.15759">
        <ele>537.84</ele>
        <time>2017-07-15T06:25:33Z</time>
      </trkpt>
      <trkpt lat="45.92738" lon="6.1577">
        <ele>540.69</ele>
        <time>2017-07-15T06:25:40Z</time>
      </trkpt>
      <trkpt lat="45.92744" lon="6.15796">
        <ele>540.48</ele>
        <time>2017-07-15T06:25:47Z</time>
      </trkpt>
      <trkpt lat="45.92761" lon="6.15813">
        <ele>542.88</ele>
        <time>2017-07-15T06:25:54Z</time>
      </trkpt>
      <trkpt lat="45.92778" lon="6.15806">
        <ele>542.12</ele>
        <time>2017-07-15T06:26:02Z</time>
      </trkpt>
      <trkpt lat="45.92789" lon="6.15782">
        <ele>533.1</ele>
        <time>2017-07-15T06:26:11Z</time>
      </trkpt>
      <trkpt lat="45.92809" lon="6.15783">
        <ele>532.84</ele>
        <time>2017-07-15T06:26:19Z</time>
      </trkpt>
      <trkpt lat="45.92816" lon="6.15811">
        <ele>535.81</ele>
        <time>2017-07-15T06:26:26Z</time>
      </trkpt>
      <trkpt lat="45.92821" lon="6.15836">
        <ele>534.09</ele>
        <time>2017-07-15T06:26:34Z</time>
      </trkpt>
      <trkpt lat="45.92843" lon="6.15829">
        <ele>533.72</ele>
        <time>2017-07-15T06:26:42Z</time>
      </trkpt>
      <trkpt lat="45.9286" lon="6.1581">
        <ele>534.88</ele>
        <time>2017-07-15T06:26:48Z</time>
      </trkpt>
      <trkpt lat="45.92876" lon="6.15793">
        <ele>540.84</ele>
        <time>2017-07-15T06:26:58Z</time>
      </trkpt>
      <trkpt lat="45.92895" lon="6.15784">
        <ele>538.08</ele>
        <time>2017-07-15T06:27:05Z</time>
      </trkpt>
      <trkpt lat="45.92912" lon="6.15796">
        <ele>529.16</ele>
        <time>2017-07-15T06:27:15Z</time>
      </trkpt>
      <trkpt lat="45.9293" lon="6.15793">
        <ele>526.88</ele>
        <time>2017-07-15T06:27:21Z</time>
      </trkpt>
      <trkpt lat="45.92949" lon="6.15796">
        <ele>527.68</ele>
        <time>2017-07-15T06:27:26Z</time>
      </trkpt>
      <trkpt lat="45.92966" lon="6.15818">
        <ele>530.88</ele>
        <time>2017-07-15T06:27:35Z</time>
      </trkpt>
      <trkpt lat="45.92983" lon="6.15835">
        <ele>534.48</ele>
        <time>2017-07-15T06:27:40Z</time>
      </trkpt>
      <trkpt lat="45.92991" lon="6.15858">
        <ele>535.63</ele>
        <time>2017-07-15T06:27:47Z</time>
      </trkpt>
      <trkpt lat="45.92998" lon="6.15883">
        <ele>537.11</ele>
        <time>2017-07-15T06:27:55Z</time>
      </trkpt>
      <trkpt lat="45.93017" lon="6.15895">
        <ele>533.13</ele>
        <time>2017-07-15T06:28:05Z</time>
      </trkpt>
      <trkpt lat="45.93035" lon="6.15896">
        <ele>536.71</ele>
        <time>2017-07-15T06:28:11Z</time>
      </trkpt>
      <trkpt lat="45.93053" lon="6.15895">
        <ele>537.68</ele>
        <time>2017-07-15T06:28:18Z</time>
      </trkpt>
      <trkpt lat="45.93065" lon="6.1592">
        <ele>540.84</ele>
        <time>2017-07-15T06:28:24Z</time>
      </trkpt>
      <trkpt lat="45.93077" lon="6.1594">
        <ele>536.08</ele>
        <time>2017-07-15T06:28:34Z</time>
      </trkpt>
      <trkpt lat="45.93097" lon="6.15939">
        <ele>534.09</ele>
        <time>2017-07-15T06:28:40Z</time>
      </trkpt>
      <trkpt lat="45.93115" lon="6.15933">
        <ele>535.07</ele>
        <time>2017-07-15T06:28:44Z</time>
      </trkpt>
      <trkpt lat="45.93134" lon="6.15933">
        <ele>533.12</ele>
        <time>2017-07-15T06:28:53Z</time>
      </trkpt>
      <trkpt lat="45.93154" lon="6.15932">
        <ele>528.25</ele>
        <time>2017-07-15T06:29:03Z</time>
      </trkpt>
      <trkpt lat="45.93172" lon="6.15932">
        <ele>523.89</ele>
        <time>2017-07-15T06:29:15Z</time>
      </trkpt>
      <trkpt lat="45.93191" lon="6.15929">
        <ele>520.96</ele>
        <time>2017-07-15T06:29:21Z</time>
      </trkpt>
      <trkpt lat="45.93209" lon="6.15918">
        <ele>518.28</ele>
        <time>2017-07-15T06:29:25Z</time>
      </trkpt>
      <trkpt lat="45.93228" lon="6.15908">
        <ele>516.76</ele>
        <time>2017-07-15T06:29:30Z</time>
      </trkpt>
      <trkpt lat="45.93246" lon="6.15896">
        <ele>516.88</ele>
        <time>2017-07-15T06:29:35Z</time>
      </trkpt>
      <trkpt lat="45.93263" lon="6.15883">
        <ele>520.84</ele>
        <time>2017-07-15T06:29:42Z</time>
      </trkpt>
      <trkpt lat="45.93275" lon="6.1586">
        <ele>521.72</ele>
        <time>2017-07-15T06:29:50Z</time>
      </trkpt>
      <trkpt lat="45.93282" lon="6.15833">
        <ele>524.6</ele>
        <time>2017-07-15T06:29:57Z</time>
      </trkpt>
      <trkpt lat="45.93283" lon="6.15805">
        <ele>525.08</ele>
        <time>2017-07-15T06:30:04Z</time>
      </trkpt>
      <trkpt lat="45.93278" lon="6.15779">
        <ele>519.88</ele>
        <time>2017-07-15T06:30:12Z</time>
      </trkpt>
      <trkpt lat="45.93273" lon="6.15753">
        <ele>519.07</ele>
        <time>2017-07-15T06:30:19Z</time>
      </trkpt>
      <trkpt lat="45.93261" lon="6.15729">
        <ele>518.65</ele>
        <time>2017-07-15T06:30:26Z</time>
      </trkpt>
      <trkpt lat="45.93247" lon="6.15711">
        <ele>517.92</ele>
        <time>2017-07-15T06:30:34Z</time>
      </trkpt>
      <trkpt lat="45.93232" lon="6.1569">
        <ele>517.74</ele>
        <time>2017-07-15T06:30:41Z</time>
      </trkpt>
      <trkpt lat="45.9322" lon="6.15666">
        <ele>520.04</ele>
        <time>2017-07-15T06:30:50Z</time>
      </trkpt>
      <trkpt lat="45.93209" lon="6.15645">
        <ele>517.92</ele>
        <time>2017-07-15T06:30:58Z</time>
      </trkpt>
      <trkpt lat="45.93209" lon="6.15616">
        <ele>515.13</ele>
        <time>2017-07-15T06:31:06Z</time>
      </trkpt>
      <trkpt lat="45.93214" lon="6.1559">
        <ele>514.88</ele>
        <time>2017-07-15T06:31:13Z</time>
      </trkpt>
      <trkpt lat="45.93218" lon="6.15563">
        <ele>515.12</ele>
        <time>2017-07-15T06:31:21Z</time>
      </trkpt>
      <trkpt lat="45.93237" lon="6.15564">
        <ele>515.85</ele>
        <time>2017-07-15T06:31:30Z</time>
      </trkpt>
      <trkpt lat="45.93257" lon="6.1557">
        <ele>518.6</ele>
        <time>2017-07-15T06:31:37Z</time>
      </trkpt>
      <trkpt lat="45.93274" lon="6.15579">
        <ele>519.64</ele>
        <time>2017-07-15T06:31:44Z</time>
      </trkpt>
      <trkpt lat="45.93294" lon="6.15588">
        <ele>521.87</ele>
        <time>2017-07-15T06:31:52Z</time>
      </trkpt>
      <trkpt lat="45.93313" lon="6.15594">
        <ele>523.04</ele>
        <time>2017-07-15T06:31:59Z</time>
      </trkpt>
      <trkpt lat="45.93332" lon="6.15605">
        <ele>522.91</ele>
        <time>2017-07-15T06:32:07Z</time>
      </trkpt>
      <trkpt lat="45.93351" lon="6.15614">
        <ele>520.85</ele>
        <time>2017-07-15T06:32:14Z</time>
      </trkpt>
      <trkpt lat="45.9337" lon="6.15619">
        <ele>521.68</ele>
        <time>2017-07-15T06:32:20Z</time>
      </trkpt>
      <trkpt lat="45.9339" lon="6.15624">
        <ele>518.89</ele>
        <time>2017-07-15T06:32:27Z</time>
      </trkpt>
      <trkpt lat="45.93406" lon="6.15639">
        <ele>515.7</ele>
        <time>2017-07-15T06:32:35Z</time>
      </trkpt>
      <trkpt lat="45.93404" lon="6.15665">
        <ele>511.09</ele>
        <time>2017-07-15T06:32:41Z</time>
      </trkpt>
      <trkpt lat="45.93397" lon="6.15693">
        <ele>510.88</ele>
        <time>2017-07-15T06:32:47Z</time>
      </trkpt>
      <trkpt lat="45.93399" lon="6.15721">
        <ele>507.85</ele>
        <time>2017-07-15T06:32:55Z</time>
      </trkpt>
      <trkpt lat="45.93412" lon="6.15745">
        <ele>509.89</ele>
        <time>2017-07-15T06:33:03Z</time>
      </trkpt>
      <trkpt lat="45.93418" lon="6.1577">
        <ele>508.85</ele>
        <time>2017-07-15T06:33:11Z</time>
      </trkpt>
      <trkpt lat="45.93431" lon="6.15791">
        <ele>512.63</ele>
        <time>2017-07-15T06:33:18Z</time>
      </trkpt>
      <trkpt lat="45.93445" lon="6.1581">
        <ele>517.88</ele>
        <time>2017-07-15T06:33:24Z</time>
      </trkpt>
      <trkpt lat="45.93451" lon="6.15837">
        <ele>514.9</ele>
        <time>2017-07-15T06:33:32Z</time>
      </trkpt>
      <trkpt lat="45.9346" lon="6.15864">
        <ele>511.12</ele>
        <time>2017-07-15T06:33:40Z</time>
      </trkpt>
      <trkpt lat="45.93469" lon="6.15888">
        <ele>512.84</ele>
        <time>2017-07-15T06:33:47Z</time>
      </trkpt>
      <trkpt lat="45.9348" lon="6.15909">
        <ele>515.84</ele>
        <time>2017-07-15T06:33:54Z</time>
      </trkpt>
      <trkpt lat="45.93488" lon="6.15934">
        <ele>516.68</ele>
        <time>2017-07-15T06:34:01Z</time>
      </trkpt>
      <trkpt lat="45.93504" lon="6.15956">
        <ele>511.73</ele>
        <time>2017-07-15T06:34:10Z</time>
      </trkpt>
      <trkpt lat="45.93519" lon="6.15975">
        <ele>510.92</ele>
        <time>2017-07-15T06:34:17Z</time>
      </trkpt>
      <trkpt lat="45.93534" lon="6.1599">
        <ele>511.28</ele>
        <time>2017-07-15T06:34:24Z</time>
      </trkpt>
      <trkpt lat="45.93548" lon="6.16011">
        <ele>509.92</ele>
        <time>2017-07-15T06:34:31Z</time>
      </trkpt>
      <trkpt lat="45.9356" lon="6.16033">
        <ele>510.83</ele>
        <time>2017-07-15T06:34:39Z</time>
      </trkpt>
      <trkpt lat="45.93567" lon="6.16058">
        <ele>509.92</ele>
        <time>2017-07-15T06:34:46Z</time>
      </trkpt>
      <trkpt lat="45.9358" lon="6.16077">
        <ele>508.69</ele>
        <time>2017-07-15T06:34:56Z</time>
      </trkpt>
      <trkpt lat="45.93595" lon="6.16093">
        <ele>510.84</ele>
        <time>2017-07-15T06:35:02Z</time>
      </trkpt>
      <trkpt lat="45.93613" lon="6.16108">
        <ele>515.28</ele>
        <time>2017-07-15T06:35:10Z</time>
      </trkpt>
      <trkpt lat="45.93634" lon="6.16117">
        <ele>514.89</ele>
        <time>2017-07-15T06:35:16Z</time>
      </trkpt>
      <trkpt lat="45.9365" lon="6.16131">
        <ele>515.07</ele>
        <time>2017-07-15T06:35:25Z</time>
      </trkpt>
      <trkpt lat="45.93671" lon="6.16135">
        <ele>515.84</ele>
        <time>2017-07-15T06:35:32Z</time>
      </trkpt>
      <trkpt lat="45.9369" lon="6.16132">
        <ele>518.87</ele>
        <time>2017-07-15T06:35:39Z</time>
      </trkpt>
      <trkpt lat="45.93709" lon="6.16138">
        <ele>519.08</ele>
        <time>2017-07-15T06:35:45Z</time>
      </trkpt>
      <trkpt lat="45.93727" lon="6.16149">
        <ele>520.11</ele>
        <time>2017-07-15T06:35:53Z</time>
      </trkpt>
      <trkpt lat="45.93736" lon="6.16172">
        <ele>514.16</ele>
        <time>2017-07-15T06:36:01Z</time>
      </trkpt>
      <trkpt lat="45.93727" lon="6.16195">
        <ele>510.68</ele>
        <time>2017-07-15T06:36:08Z</time>
      </trkpt>
      <trkpt lat="45.93718" lon="6.16218">
        <ele>513.79</ele>
        <time>2017-07-15T06:36:15Z</time>
      </trkpt>
      <trkpt lat="45.93706" lon="6.16241">
        <ele>512.88</ele>
        <time>2017-07-15T06:36:24Z</time>
      </trkpt>
      <trkpt lat="45.93696" lon="6.16267">
        <ele>517.63</ele>
        <time>2017-07-15T06:36:32Z</time>
      </trkpt>
      <trkpt lat="45.93685" lon="6.16289">
        <ele>518.84</ele>
        <time>2017-07-15T06:36:41Z</time>
      </trkpt>
      <trkpt lat="45.93674" lon="6.1631">
        <ele>520.83</ele>
        <time>2017-07-15T06:36:49Z</time>
      </trkpt>
      <trkpt lat="45.93663" lon="6.16333">
        <ele>520.85</ele>
        <time>2017-07-15T06:36:58Z</time>
      </trkpt>
      <trkpt lat="45.93652" lon="6.16356">
        <ele>522.88</ele>
        <time>2017-07-15T06:37:06Z</time>
      </trkpt>
      <trkpt lat="45.9364" lon="6.16378">
        <ele>524.88</ele>
        <time>2017-07-15T06:37:14Z</time>
      </trkpt>
      <trkpt lat="45.9363" lon="6.164">
        <ele>525.68</ele>
        <time>2017-07-15T06:37:22Z</time>
      </trkpt>
      <trkpt lat="45.93619" lon="6.16422">
        <ele>525.87</ele>
        <time>2017-07-15T06:37:30Z</time>
      </trkpt>
      <trkpt lat="45.93608" lon="6.16445">
        <ele>525.72</ele>
        <time>2017-07-15T06:37:39Z</time>
      </trkpt>
      <trkpt lat="45.93597" lon="6.16467">
        <ele>524.88</ele>
        <time>2017-07-15T06:37:48Z</time>
      </trkpt>
      <trkpt lat="45.93587" lon="6.16491">
        <ele>527.68</ele>
        <time>2017-07-15T06:37:57Z</time>
      </trkpt>
      <trkpt lat="45.93578" lon="6.16516">
        <ele>528.92</ele>
        <time>2017-07-15T06:38:05Z</time>
      </trkpt>
      <trkpt lat="45.93569" lon="6.16541">
        <ele>531.84</ele>
        <time>2017-07-15T06:38:14Z</time>
      </trkpt>
      <trkpt lat="45.93562" lon="6.16568">
        <ele>534.88</ele>
        <time>2017-07-15T06:38:23Z</time>
      </trkpt>
      <trkpt lat="45.93558" lon="6.16593">
        <ele>536.88</ele>
        <time>2017-07-15T06:38:31Z</time>
      </trkpt>
      <trkpt lat="45.93554" lon="6.16621">
        <ele>535.88</ele>
        <time>2017-07-15T06:38:40Z</time>
      </trkpt>
      <trkpt lat="45.93551" lon="6.16647">
        <ele>536.68</ele>
        <time>2017-07-15T06:38:49Z</time>
      </trkpt>
      <trkpt lat="45.93547" lon="6.16674">
        <ele>539.75</ele>
        <time>2017-07-15T06:38:56Z</time>
      </trkpt>
      <trkpt lat="45.93549" lon="6.167">
        <ele>543.87</ele>
        <time>2017-07-15T06:39:05Z</time>
      </trkpt>
      <trkpt lat="45.93569" lon="6.16703">
        <ele>540.92</ele>
        <time>2017-07-15T06:39:13Z</time>
      </trkpt>
      <trkpt lat="45.93589" lon="6.16702">
        <ele>540.89</ele>
        <time>2017-07-15T06:39:20Z</time>
      </trkpt>
      <trkpt lat="45.93607" lon="6.16707">
        <ele>541.11</ele>
        <time>2017-07-15T06:39:29Z</time>
      </trkpt>
      <trkpt lat="45.93603" lon="6.16679">
        <ele>535.12</ele>
        <time>2017-07-15T06:40:18Z</time>
      </trkpt>
      <trkpt lat="45.93597" lon="6.16649">
        <ele>532.7</ele>
        <time>2017-07-15T06:40:23Z</time>
      </trkpt>
      <trkpt lat="45.936" lon="6.16621">
        <ele>531.88</ele>
        <time>2017-07-15T06:40:30Z</time>
      </trkpt>
      <trkpt lat="45.93605" lon="6.16596">
        <ele>532.87</ele>
        <time>2017-07-15T06:40:36Z</time>
      </trkpt>
      <trkpt lat="45.93615" lon="6.16571">
        <ele>532.68</ele>
        <time>2017-07-15T06:40:43Z</time>
      </trkpt>
      <trkpt lat="45.93627" lon="6.1655">
        <ele>533.84</ele>
        <time>2017-07-15T06:40:50Z</time>
      </trkpt>
      <trkpt lat="45.93638" lon="6.16527">
        <ele>534.08</ele>
        <time>2017-07-15T06:40:56Z</time>
      </trkpt>
      <trkpt lat="45.9365" lon="6.16503">
        <ele>535.68</ele>
        <time>2017-07-15T06:41:03Z</time>
      </trkpt>
      <trkpt lat="45.93661" lon="6.16477">
        <ele>532.9</ele>
        <time>2017-07-15T06:41:11Z</time>
      </trkpt>
      <trkpt lat="45.93673" lon="6.16457">
        <ele>532.08</ele>
        <time>2017-07-15T06:41:17Z</time>
      </trkpt>
      <trkpt lat="45.93683" lon="6.16435">
        <ele>529.92</ele>
        <time>2017-07-15T06:41:25Z</time>
      </trkpt>
      <trkpt lat="45.93696" lon="6.16412">
        <ele>526.7</ele>
        <time>2017-07-15T06:41:31Z</time>
      </trkpt>
      <trkpt lat="45.93709" lon="6.16391">
        <ele>523.09</ele>
        <time>2017-07-15T06:41:38Z</time>
      </trkpt>
      <trkpt lat="45.93721" lon="6.16369">
        <ele>521.88</ele>
        <time>2017-07-15T06:41:44Z</time>
      </trkpt>
      <trkpt lat="45.93734" lon="6.16349">
        <ele>518.08</ele>
        <time>2017-07-15T06:41:51Z</time>
      </trkpt>
      <trkpt lat="45.93747" lon="6.16324">
        <ele>517.89</ele>
        <time>2017-07-15T06:41:58Z</time>
      </trkpt>
      <trkpt lat="45.93757" lon="6.16302">
        <ele>518.68</ele>
        <time>2017-07-15T06:42:04Z</time>
      </trkpt>
      <trkpt lat="45.93767" lon="6.16279">
        <ele>518.88</ele>
        <time>2017-07-15T06:42:10Z</time>
      </trkpt>
      <trkpt lat="45.93777" lon="6.16258">
        <ele>517.88</ele>
        <time>2017-07-15T06:42:16Z</time>
      </trkpt>
      <trkpt lat="45.93788" lon="6.16233">
        <ele>515.88</ele>
        <time>2017-07-15T06:42:23Z</time>
      </trkpt>
      <trkpt lat="45.93798" lon="6.16209">
        <ele>515.88</ele>
        <time>2017-07-15T06:42:30Z</time>
      </trkpt>
      <trkpt lat="45.93811" lon="6.16188">
        <ele>514.72</ele>
        <time>2017-07-15T06:42:37Z</time>
      </trkpt>
      <trkpt lat="45.93825" lon="6.16169">
        <ele>513.92</ele>
        <time>2017-07-15T06:42:43Z</time>
      </trkpt>
      <trkpt lat="45.93836" lon="6.16147">
        <ele>511.28</ele>
        <time>2017-07-15T06:42:50Z</time>
      </trkpt>
      <trkpt lat="45.93838" lon="6.16118">
        <ele>508.06</ele>
        <time>2017-07-15T06:42:57Z</time>
      </trkpt>
      <trkpt lat="45.9383" lon="6.16088">
        <ele>505.88</ele>
        <time>2017-07-15T06:43:04Z</time>
      </trkpt>
      <trkpt lat="45.93824" lon="6.16061">
        <ele>504.88</ele>
        <time>2017-07-15T06:43:12Z</time>
      </trkpt>
      <trkpt lat="45.93822" lon="6.16035">
        <ele>500.29</ele>
        <time>2017-07-15T06:43:20Z</time>
      </trkpt>
      <trkpt lat="45.93819" lon="6.16008">
        <ele>498.72</ele>
        <time>2017-07-15T06:43:27Z</time>
      </trkpt>
      <trkpt lat="45.93818" lon="6.1598">
        <ele>494.32</ele>
        <time>2017-07-15T06:43:34Z</time>
      </trkpt>
      <trkpt lat="45.93811" lon="6.15954">
        <ele>494.12</ele>
        <time>2017-07-15T06:43:40Z</time>
      </trkpt>
      <trkpt lat="45.93811" lon="6.15927">
        <ele>496.83</ele>
        <time>2017-07-15T06:43:46Z</time>
      </trkpt>
      <trkpt lat="45.93809" lon="6.159">
        <ele>490.33</ele>
        <time>2017-07-15T06:43:53Z</time>
      </trkpt>
      <trkpt lat="45.93805" lon="6.15871">
        <ele>489.88</ele>
        <time>2017-07-15T06:43:59Z</time>
      </trkpt>
      <trkpt lat="45.93801" lon="6.15845">
        <ele>488.88</ele>
        <time>2017-07-15T06:44:06Z</time>
      </trkpt>
      <trkpt lat="45.93799" lon="6.15818">
        <ele>484.09</ele>
        <time>2017-07-15T06:44:12Z</time>
      </trkpt>
      <trkpt lat="45.93792" lon="6.15792">
        <ele>482.85</ele>
        <time>2017-07-15T06:44:20Z</time>
      </trkpt>
      <trkpt lat="45.93791" lon="6.15766">
        <ele>480.89</ele>
        <time>2017-07-15T06:44:26Z</time>
      </trkpt>
      <trkpt lat="45.93786" lon="6.1574">
        <ele>482.68</ele>
        <time>2017-07-15T06:44:33Z</time>
      </trkpt>
      <trkpt lat="45.9378" lon="6.15715">
        <ele>481.88</ele>
        <time>2017-07-15T06:44:39Z</time>
      </trkpt>
      <trkpt lat="45.93776" lon="6.15686">
        <ele>480.05</ele>
        <time>2017-07-15T06:44:46Z</time>
      </trkpt>
      <trkpt lat="45.93771" lon="6.1566">
        <ele>477.08</ele>
        <time>2017-07-15T06:44:52Z</time>
      </trkpt>
      <trkpt lat="45.93768" lon="6.1563">
        <ele>475.96</ele>
        <time>2017-07-15T06:44:59Z</time>
      </trkpt>
      <trkpt lat="45.93764" lon="6.15601">
        <ele>474.05</ele>
        <time>2017-07-15T06:45:06Z</time>
      </trkpt>
      <trkpt lat="45.93763" lon="6.15574">
        <ele>472.72</ele>
        <time>2017-07-15T06:45:12Z</time>
      </trkpt>
      <trkpt lat="45.93762" lon="6.15545">
        <ele>471.84</ele>
        <time>2017-07-15T06:45:18Z</time>
      </trkpt>
      <trkpt lat="45.93762" lon="6.15517">
        <ele>472.84</ele>
        <time>2017-07-15T06:45:24Z</time>
      </trkpt>
      <trkpt lat="45.93763" lon="6.1549">
        <ele>471.05</ele>
        <time>2017-07-15T06:45:31Z</time>
      </trkpt>
      <trkpt lat="45.93765" lon="6.15464">
        <ele>471.69</ele>
        <time>2017-07-15T06:45:38Z</time>
      </trkpt>
      <trkpt lat="45.93767" lon="6.15438">
        <ele>470.08</ele>
        <time>2017-07-15T06:45:45Z</time>
      </trkpt>
      <trkpt lat="45.93758" lon="6.15411">
        <ele>471.89</ele>
        <time>2017-07-15T06:45:52Z</time>
      </trkpt>
      <trkpt lat="45.93741" lon="6.15397">
        <ele>471.88</ele>
        <time>2017-07-15T06:46:01Z</time>
      </trkpt>
      <trkpt lat="45.93724" lon="6.15387">
        <ele>472.8</ele>
        <time>2017-07-15T06:46:09Z</time>
      </trkpt>
      <trkpt lat="45.93706" lon="6.15376">
        <ele>468.89</ele>
        <time>2017-07-15T06:46:15Z</time>
      </trkpt>
      <trkpt lat="45.93686" lon="6.15366">
        <ele>466.92</ele>
        <time>2017-07-15T06:46:23Z</time>
      </trkpt>
      <trkpt lat="45.9368" lon="6.15341">
        <ele>464.93</ele>
        <time>2017-07-15T06:46:31Z</time>
      </trkpt>
      <trkpt lat="45.93678" lon="6.15312">
        <ele>467.68</ele>
        <time>2017-07-15T06:46:38Z</time>
      </trkpt>
      <trkpt lat="45.93681" lon="6.15286">
        <ele>469.95</ele>
        <time>2017-07-15T06:46:46Z</time>
      </trkpt>
      <trkpt lat="45.93682" lon="6.15256">
        <ele>468.88</ele>
        <time>2017-07-15T06:46:54Z</time>
      </trkpt>
      <trkpt lat="45.93686" lon="6.15229">
        <ele>471.88</ele>
        <time>2017-07-15T06:47:01Z</time>
      </trkpt>
      <trkpt lat="45.9368" lon="6.15201">
        <ele>472.68</ele>
        <time>2017-07-15T06:47:09Z</time>
      </trkpt>
      <trkpt lat="45.93681" lon="6.15174">
        <ele>472.72</ele>
        <time>2017-07-15T06:47:18Z</time>
      </trkpt>
      <trkpt lat="45.93679" lon="6.15145">
        <ele>473.68</ele>
        <time>2017-07-15T06:47:26Z</time>
      </trkpt>
      <trkpt lat="45.93671" lon="6.15122">
        <ele>474.91</ele>
        <time>2017-07-15T06:47:32Z</time>
      </trkpt>
      <trkpt lat="45.93662" lon="6.15097">
        <ele>475.08</ele>
        <time>2017-07-15T06:47:39Z</time>
      </trkpt>
      <trkpt lat="45.93651" lon="6.15075">
        <ele>473.1</ele>
        <time>2017-07-15T06:47:47Z</time>
      </trkpt>
      <trkpt lat="45.93645" lon="6.1505">
        <ele>472.84</ele>
        <time>2017-07-15T06:47:54Z</time>
      </trkpt>
      <trkpt lat="45.93643" lon="6.15022">
        <ele>473.75</ele>
        <time>2017-07-15T06:48:02Z</time>
      </trkpt>
      <trkpt lat="45.93638" lon="6.14995">
        <ele>473.9</ele>
        <time>2017-07-15T06:48:10Z</time>
      </trkpt>
      <trkpt lat="45.93634" lon="6.1497">
        <ele>475.83</ele>
        <time>2017-07-15T06:48:16Z</time>
      </trkpt>
      <trkpt lat="45.93636" lon="6.14943">
        <ele>478.67</ele>
        <time>2017-07-15T06:48:22Z</time>
      </trkpt>
      <trkpt lat="45.93632" lon="6.14917">
        <ele>479.91</ele>
        <time>2017-07-15T06:48:28Z</time>
      </trkpt>
      <trkpt lat="45.93621" lon="6.14893">
        <ele>478.08</ele>
        <time>2017-07-15T06:48:36Z</time>
      </trkpt>
      <trkpt lat="45.93616" lon="6.14867">
        <ele>474.68</ele>
        <time>2017-07-15T06:48:44Z</time>
      </trkpt>
      <trkpt lat="45.9361" lon="6.14839">
        <ele>475.89</ele>
        <time>2017-07-15T06:48:52Z</time>
      </trkpt>
      <trkpt lat="45.93601" lon="6.14812">
        <ele>479.11</ele>
        <time>2017-07-15T06:48:59Z</time>
      </trkpt>
      <trkpt lat="45.93596" lon="6.14785">
        <ele>479.08</ele>
        <time>2017-07-15T06:49:07Z</time>
      </trkpt>
      <trkpt lat="45.93589" lon="6.1476">
        <ele>478.88</ele>
        <time>2017-07-15T06:49:17Z</time>
      </trkpt>
      <trkpt lat="45.93582" lon="6.14734">
        <ele>478.68</ele>
        <time>2017-07-15T06:49:27Z</time>
      </trkpt>
      <trkpt lat="45.93576" lon="6.14706">
        <ele>483.65</ele>
        <time>2017-07-15T06:49:34Z</time>
      </trkpt>
      <trkpt lat="45.93565" lon="6.14684">
        <ele>483.88</ele>
        <time>2017-07-15T06:49:42Z</time>
      </trkpt>
      <trkpt lat="45.93553" lon="6.14662">
        <ele>483.89</ele>
        <time>2017-07-15T06:49:51Z</time>
      </trkpt>
      <trkpt lat="45.93535" lon="6.14651">
        <ele>486.68</ele>
        <time>2017-07-15T06:49:59Z</time>
      </trkpt>
      <trkpt lat="45.93518" lon="6.14638">
        <ele>485.92</ele>
        <time>2017-07-15T06:50:09Z</time>
      </trkpt>
      <trkpt lat="45.93501" lon="6.14631">
        <ele>485.71</ele>
        <time>2017-07-15T06:50:17Z</time>
      </trkpt>
      <trkpt lat="45.93483" lon="6.14622">
        <ele>485.08</ele>
        <time>2017-07-15T06:50:25Z</time>
      </trkpt>
      <trkpt lat="45.93466" lon="6.14612">
        <ele>489.36</ele>
        <time>2017-07-15T06:50:32Z</time>
      </trkpt>
      <trkpt lat="45.93447" lon="6.14598">
        <ele>492.84</ele>
        <time>2017-07-15T06:50:39Z</time>
      </trkpt>
      <trkpt lat="45.9343" lon="6.1458">
        <ele>492.01</ele>
        <time>2017-07-15T06:50:47Z</time>
      </trkpt>
      <trkpt lat="45.93416" lon="6.14561">
        <ele>495.67</ele>
        <time>2017-07-15T06:50:56Z</time>
      </trkpt>
      <trkpt lat="45.93401" lon="6.14542">
        <ele>495.68</ele>
        <time>2017-07-15T06:51:04Z</time>
      </trkpt>
      <trkpt lat="45.93385" lon="6.14524">
        <ele>499.84</ele>
        <time>2017-07-15T06:51:12Z</time>
      </trkpt>
      <trkpt lat="45.93371" lon="6.14502">
        <ele>497.12</ele>
        <time>2017-07-15T06:51:20Z</time>
      </trkpt>
      <trkpt lat="45.93362" lon="6.14478">
        <ele>497.31</ele>
        <time>2017-07-15T06:51:28Z</time>
      </trkpt>
      <trkpt lat="45.93352" lon="6.14453">
        <ele>496.04</ele>
        <time>2017-07-15T06:51:37Z</time>
      </trkpt>
      <trkpt lat="45.93339" lon="6.1443">
        <ele>498.68</ele>
        <time>2017-07-15T06:51:44Z</time>
      </trkpt>
      <trkpt lat="45.93325" lon="6.1441">
        <ele>502.89</ele>
        <time>2017-07-15T06:51:50Z</time>
      </trkpt>
      <trkpt lat="45.93311" lon="6.1439">
        <ele>506.79</ele>
        <time>2017-07-15T06:51:57Z</time>
      </trkpt>
      <trkpt lat="45.93294" lon="6.14375">
        <ele>506.84</ele>
        <time>2017-07-15T06:52:06Z</time>
      </trkpt>
      <trkpt lat="45.9328" lon="6.14357">
        <ele>504.88</ele>
        <time>2017-07-15T06:52:14Z</time>
      </trkpt>
      <trkpt lat="45.93263" lon="6.1434">
        <ele>504.88</ele>
        <time>2017-07-15T06:52:22Z</time>
      </trkpt>
      <trkpt lat="45.93248" lon="6.1432">
        <ele>506.88</ele>
        <time>2017-07-15T06:52:30Z</time>
      </trkpt>
      <trkpt lat="45.93235" lon="6.14301">
        <ele>511.24</ele>
        <time>2017-07-15T06:52:37Z</time>
      </trkpt>
      <trkpt lat="45.93219" lon="6.14284">
        <ele>513.49</ele>
        <time>2017-07-15T06:52:46Z</time>
      </trkpt>
      <trkpt lat="45.93203" lon="6.1427">
        <ele>512.92</ele>
        <time>2017-07-15T06:52:52Z</time>
      </trkpt>
      <trkpt lat="45.93193" lon="6.14247">
        <ele>516.48</ele>
        <time>2017-07-15T06:52:59Z</time>
      </trkpt>
      <trkpt lat="45.9318" lon="6.14229">
        <ele>518.69</ele>
        <time>2017-07-15T06:53:06Z</time>
      </trkpt>
      <trkpt lat="45.93165" lon="6.14213">
        <ele>520.68</ele>
        <time>2017-07-15T06:53:13Z</time>
      </trkpt>
      <trkpt lat="45.93147" lon="6.14198">
        <ele>519.72</ele>
        <time>2017-07-15T06:53:20Z</time>
      </trkpt>
      <trkpt lat="45.93131" lon="6.14185">
        <ele>515.92</ele>
        <time>2017-07-15T06:53:29Z</time>
      </trkpt>
      <trkpt lat="45.93116" lon="6.1417">
        <ele>513.69</ele>
        <time>2017-07-15T06:53:35Z</time>
      </trkpt>
      <trkpt lat="45.93102" lon="6.14151">
        <ele>512.92</ele>
        <time>2017-07-15T06:53:43Z</time>
      </trkpt>
      <trkpt lat="45.93091" lon="6.14127">
        <ele>515.87</ele>
        <time>2017-07-15T06:53:50Z</time>
      </trkpt>
      <trkpt lat="45.93079" lon="6.14107">
        <ele>519.64</ele>
        <time>2017-07-15T06:53:58Z</time>
      </trkpt>
      <trkpt lat="45.93061" lon="6.14092">
        <ele>517.98</ele>
        <time>2017-07-15T06:54:06Z</time>
      </trkpt>
      <trkpt lat="45.93043" lon="6.14083">
        <ele>514.88</ele>
        <time>2017-07-15T06:54:15Z</time>
      </trkpt>
      <trkpt lat="45.93037" lon="6.14054">
        <ele>513.08</ele>
        <time>2017-07-15T06:54:22Z</time>
      </trkpt>
      <trkpt lat="45.93022" lon="6.14038">
        <ele>513.88</ele>
        <time>2017-07-15T06:54:29Z</time>
      </trkpt>
      <trkpt lat="45.93004" lon="6.14033">
        <ele>515.6</ele>
        <time>2017-07-15T06:54:36Z</time>
      </trkpt>
      <trkpt lat="45.92988" lon="6.14015">
        <ele>515.81</ele>
        <time>2017-07-15T06:54:44Z</time>
      </trkpt>
      <trkpt lat="45.92972" lon="6.14001">
        <ele>515.08</ele>
        <time>2017-07-15T06:54:51Z</time>
      </trkpt>
      <trkpt lat="45.92953" lon="6.13988">
        <ele>515.04</ele>
        <time>2017-07-15T06:54:59Z</time>
      </trkpt>
      <trkpt lat="45.92935" lon="6.13978">
        <ele>515.65</ele>
        <time>2017-07-15T06:55:07Z</time>
      </trkpt>
      <trkpt lat="45.92919" lon="6.13965">
        <ele>515.11</ele>
        <time>2017-07-15T06:55:15Z</time>
      </trkpt>
      <trkpt lat="45.92902" lon="6.13953">
        <ele>516.88</ele>
        <time>2017-07-15T06:55:23Z</time>
      </trkpt>
      <trkpt lat="45.92887" lon="6.13934">
        <ele>519.68</ele>
        <time>2017-07-15T06:55:30Z</time>
      </trkpt>
      <trkpt lat="45.92872" lon="6.13917">
        <ele>518.88</ele>
        <time>2017-07-15T06:55:38Z</time>
      </trkpt>
      <trkpt lat="45.92856" lon="6.13899">
        <ele>521.84</ele>
        <time>2017-07-15T06:55:47Z</time>
      </trkpt>
      <trkpt lat="45.92839" lon="6.13893">
        <ele>522.88</ele>
        <time>2017-07-15T06:55:54Z</time>
      </trkpt>
      <trkpt lat="45.92819" lon="6.13887">
        <ele>520.68</ele>
        <time>2017-07-15T06:56:02Z</time>
      </trkpt>
      <trkpt lat="45.92802" lon="6.13879">
        <ele>521.64</ele>
        <time>2017-07-15T06:56:10Z</time>
      </trkpt>
      <trkpt lat="45.92782" lon="6.13879">
        <ele>522.08</ele>
        <time>2017-07-15T06:56:18Z</time>
      </trkpt>
      <trkpt lat="45.92764" lon="6.13887">
        <ele>525.84</ele>
        <time>2017-07-15T06:56:25Z</time>
      </trkpt>
      <trkpt lat="45.92744" lon="6.13891">
        <ele>527.68</ele>
        <time>2017-07-15T06:56:33Z</time>
      </trkpt>
      <trkpt lat="45.92725" lon="6.13885">
        <ele>527.88</ele>
        <time>2017-07-15T06:56:41Z</time>
      </trkpt>
      <trkpt lat="45.92705" lon="6.1389">
        <ele>529.04</ele>
        <time>2017-07-15T06:56:49Z</time>
      </trkpt>
      <trkpt lat="45.92685" lon="6.13894">
        <ele>528.08</ele>
        <time>2017-07-15T06:56:57Z</time>
      </trkpt>
      <trkpt lat="45.92666" lon="6.13899">
        <ele>527.92</ele>
        <time>2017-07-15T06:57:05Z</time>
      </trkpt>
      <trkpt lat="45.92646" lon="6.13897">
        <ele>527.92</ele>
        <time>2017-07-15T06:57:13Z</time>
      </trkpt>
      <trkpt lat="45.92627" lon="6.13888">
        <ele>524.88</ele>
        <time>2017-07-15T06:57:22Z</time>
      </trkpt>
      <trkpt lat="45.92607" lon="6.13877">
        <ele>524.72</ele>
        <time>2017-07-15T06:57:29Z</time>
      </trkpt>
      <trkpt lat="45.9259" lon="6.13865">
        <ele>523.69</ele>
        <time>2017-07-15T06:57:36Z</time>
      </trkpt>
      <trkpt lat="45.92571" lon="6.13864">
        <ele>518.9</ele>
        <time>2017-07-15T06:57:44Z</time>
      </trkpt>
      <trkpt lat="45.92557" lon="6.13884">
        <ele>519.64</ele>
        <time>2017-07-15T06:57:52Z</time>
      </trkpt>
      <trkpt lat="45.92558" lon="6.13911">
        <ele>518.86</ele>
        <time>2017-07-15T06:58:00Z</time>
      </trkpt>
      <trkpt lat="45.92559" lon="6.13938">
        <ele>517.88</ele>
        <time>2017-07-15T06:58:08Z</time>
      </trkpt>
      <trkpt lat="45.9256" lon="6.13964">
        <ele>517.08</ele>
        <time>2017-07-15T06:58:14Z</time>
      </trkpt>
      <trkpt lat="45.92559" lon="6.13991">
        <ele>515.85</ele>
        <time>2017-07-15T06:58:21Z</time>
      </trkpt>
      <trkpt lat="45.92547" lon="6.14011">
        <ele>517.49</ele>
        <time>2017-07-15T06:58:28Z</time>
      </trkpt>
      <trkpt lat="45.92533" lon="6.14028">
        <ele>517.88</ele>
        <time>2017-07-15T06:58:35Z</time>
      </trkpt>
      <trkpt lat="45.92516" lon="6.14043">
        <ele>518.91</ele>
        <time>2017-07-15T06:58:43Z</time>
      </trkpt>
      <trkpt lat="45.92499" lon="6.14056">
        <ele>518.08</ele>
        <time>2017-07-15T06:58:51Z</time>
      </trkpt>
      <trkpt lat="45.92483" lon="6.14075">
        <ele>518.84</ele>
        <time>2017-07-15T06:58:58Z</time>
      </trkpt>
      <trkpt lat="45.92468" lon="6.1409">
        <ele>518.88</ele>
        <time>2017-07-15T06:59:05Z</time>
      </trkpt>
      <trkpt lat="45.92453" lon="6.14105">
        <ele>513.48</ele>
        <time>2017-07-15T06:59:13Z</time>
      </trkpt>
      <trkpt lat="45.92434" lon="6.14117">
        <ele>514.68</ele>
        <time>2017-07-15T06:59:21Z</time>
      </trkpt>
      <trkpt lat="45.92427" lon="6.14143">
        <ele>515.67</ele>
        <time>2017-07-15T06:59:29Z</time>
      </trkpt>
      <trkpt lat="45.92422" lon="6.1417">
        <ele>517.87</ele>
        <time>2017-07-15T06:59:36Z</time>
      </trkpt>
      <trkpt lat="45.92417" lon="6.14199">
        <ele>518.84</ele>
        <time>2017-07-15T06:59:44Z</time>
      </trkpt>
      <trkpt lat="45.92414" lon="6.14226">
        <ele>518.08</ele>
        <time>2017-07-15T06:59:50Z</time>
      </trkpt>
      <trkpt lat="45.92411" lon="6.14253">
        <ele>518.68</ele>
        <time>2017-07-15T06:59:57Z</time>
      </trkpt>
      <trkpt lat="45.92407" lon="6.14278">
        <ele>521</ele>
        <time>2017-07-15T07:00:04Z</time>
      </trkpt>
      <trkpt lat="45.9241" lon="6.14305">
        <ele>516.12</ele>
        <time>2017-07-15T07:00:12Z</time>
      </trkpt>
      <trkpt lat="45.92411" lon="6.14332">
        <ele>514.05</ele>
        <time>2017-07-15T07:00:20Z</time>
      </trkpt>
      <trkpt lat="45.92407" lon="6.14359">
        <ele>516.84</ele>
        <time>2017-07-15T07:00:29Z</time>
      </trkpt>
      <trkpt lat="45.92409" lon="6.14385">
        <ele>516.84</ele>
        <time>2017-07-15T07:00:40Z</time>
      </trkpt>
    </trkseg>
  </trk>
</gpx>